sensor_id;sensor_type;location;lat;lon;timestamp;P1;durP1;ratioP1;P2;durP2;ratioP2
55692;SDS011;41590;53.366;5.212;2022-08-01T00:02:26;11.88;;;3.67;;
55692;SDS011;41590;53.366;5.212;2022-08-01T00:04:56;7.78;;;3.35;;
55692;SDS011;41590;53.366;5.212;2022-08-01T00:07:22;6.57;;;3.08;;
55692;SDS011;41590;53.366;5.212;2022-08-01T00:09:48;11.90;;;3.55;;
55692;SDS011;41590;53.366;5.212;2022-08-01T00:15:41;8.57;;;2.92;;
55692;SDS011;41590;53.366;5.212;2022-08-01T00:18:07;9.85;;;2.83;;
55692;SDS011;41590;53.366;5.212;2022-08-01T00:20:32;8.82;;;3.00;;
55692;SDS011;41590;53.366;5.212;2022-08-01T00:23:01;10.27;;;3.53;;
55692;SDS011;41590;53.366;5.212;2022-08-01T00:25:29;7.55;;;2.92;;
55692;SDS011;41590;53.366;5.212;2022-08-01T00:27:54;14.10;;;3.67;;
55692;SDS011;41590;53.366;5.212;2022-08-01T00:30:20;14.60;;;3.63;;
55692;SDS011;41590;53.366;5.212;2022-08-01T00:32:46;18.92;;;3.78;;
55692;SDS011;41590;53.366;5.212;2022-08-01T00:35:11;22.35;;;4.40;;
55692;SDS011;41590;53.366;5.212;2022-08-01T00:37:38;22.15;;;4.10;;
55692;SDS011;41590;53.366;5.212;2022-08-01T00:40:04;27.63;;;4.57;;
55692;SDS011;41590;53.366;5.212;2022-08-01T00:42:31;22.20;;;4.63;;
55692;SDS011;41590;53.366;5.212;2022-08-01T00:44:56;21.50;;;4.97;;
55692;SDS011;41590;53.366;5.212;2022-08-01T00:47:22;23.67;;;4.28;;
55692;SDS011;41590;53.366;5.212;2022-08-01T00:49:48;20.77;;;3.83;;
55692;SDS011;41590;53.366;5.212;2022-08-01T00:52:14;15.80;;;4.25;;
55692;SDS011;41590;53.366;5.212;2022-08-01T00:54:40;21.20;;;4.15;;
55692;SDS011;41590;53.366;5.212;2022-08-01T00:57:06;13.90;;;3.80;;
55692;SDS011;41590;53.366;5.212;2022-08-01T00:59:32;12.80;;;3.55;;
55692;SDS011;41590;53.366;5.212;2022-08-01T01:01:59;25.20;;;4.43;;
55692;SDS011;41590;53.366;5.212;2022-08-01T01:04:25;19.05;;;4.18;;
55692;SDS011;41590;53.366;5.212;2022-08-01T01:09:39;18.67;;;4.35;;
55692;SDS011;41590;53.366;5.212;2022-08-01T01:12:29;24.92;;;5.30;;
55692;SDS011;41590;53.366;5.212;2022-08-01T01:15:07;21.75;;;3.92;;
55692;SDS011;41590;53.366;5.212;2022-08-01T01:17:39;15.75;;;3.95;;
55692;SDS011;41590;53.366;5.212;2022-08-01T01:20:39;16.50;;;4.25;;
55692;SDS011;41590;53.366;5.212;2022-08-01T01:23:14;22.73;;;4.72;;
55692;SDS011;41590;53.366;5.212;2022-08-01T01:28:21;21.73;;;4.50;;
55692;SDS011;41590;53.366;5.212;2022-08-01T01:30:59;20.65;;;4.18;;
55692;SDS011;41590;53.366;5.212;2022-08-01T01:33:26;23.75;;;4.45;;
55692;SDS011;41590;53.366;5.212;2022-08-01T01:35:57;23.17;;;4.65;;
55692;SDS011;41590;53.366;5.212;2022-08-01T01:38:29;22.45;;;4.18;;
55692;SDS011;41590;53.366;5.212;2022-08-01T01:40:59;25.48;;;4.57;;
55692;SDS011;41590;53.366;5.212;2022-08-01T01:43:27;24.73;;;4.40;;
55692;SDS011;41590;53.366;5.212;2022-08-01T01:45:55;20.85;;;3.90;;
55692;SDS011;41590;53.366;5.212;2022-08-01T01:48:22;19.52;;;3.75;;
55692;SDS011;41590;53.366;5.212;2022-08-01T01:50:50;19.20;;;3.95;;
55692;SDS011;41590;53.366;5.212;2022-08-01T01:53:17;21.48;;;3.50;;
55692;SDS011;41590;53.366;5.212;2022-08-01T01:55:46;17.05;;;3.72;;
55692;SDS011;41590;53.366;5.212;2022-08-01T01:58:15;11.95;;;2.85;;
55692;SDS011;41590;53.366;5.212;2022-08-01T02:00:42;19.63;;;3.60;;
55692;SDS011;41590;53.366;5.212;2022-08-01T02:05:42;20.35;;;3.47;;
55692;SDS011;41590;53.366;5.212;2022-08-01T02:08:09;14.23;;;3.67;;
55692;SDS011;41590;53.366;5.212;2022-08-01T02:10:36;21.20;;;3.92;;
55692;SDS011;41590;53.366;5.212;2022-08-01T02:13:06;22.98;;;3.25;;
55692;SDS011;41590;53.366;5.212;2022-08-01T02:15:34;16.27;;;3.13;;
55692;SDS011;41590;53.366;5.212;2022-08-01T02:18:04;22.33;;;3.47;;
55692;SDS011;41590;53.366;5.212;2022-08-01T02:20:32;15.68;;;3.35;;
55692;SDS011;41590;53.366;5.212;2022-08-01T02:23:06;28.33;;;3.78;;
55692;SDS011;41590;53.366;5.212;2022-08-01T02:25:38;20.75;;;3.67;;
55692;SDS011;41590;53.366;5.212;2022-08-01T02:28:43;23.20;;;3.88;;
55692;SDS011;41590;53.366;5.212;2022-08-01T02:31:13;16.57;;;2.87;;
55692;SDS011;41590;53.366;5.212;2022-08-01T02:33:43;23.42;;;3.15;;
55692;SDS011;41590;53.366;5.212;2022-08-01T02:36:11;23.52;;;3.80;;
55692;SDS011;41590;53.366;5.212;2022-08-01T02:38:42;19.42;;;3.00;;
55692;SDS011;41590;53.366;5.212;2022-08-01T02:41:11;20.58;;;3.25;;
55692;SDS011;41590;53.366;5.212;2022-08-01T02:43:42;19.50;;;3.30;;
55692;SDS011;41590;53.366;5.212;2022-08-01T02:46:15;19.08;;;3.28;;
55692;SDS011;41590;53.366;5.212;2022-08-01T02:48:45;14.20;;;2.80;;
55692;SDS011;41590;53.366;5.212;2022-08-01T02:51:12;17.35;;;2.33;;
55692;SDS011;41590;53.366;5.212;2022-08-01T02:56:11;16.02;;;2.90;;
55692;SDS011;41590;53.366;5.212;2022-08-01T02:58:38;19.88;;;2.83;;
55692;SDS011;41590;53.366;5.212;2022-08-01T03:01:06;17.60;;;3.28;;
55692;SDS011;41590;53.366;5.212;2022-08-01T03:03:33;20.70;;;3.10;;
55692;SDS011;41590;53.366;5.212;2022-08-01T03:06:00;22.83;;;2.88;;
55692;SDS011;41590;53.366;5.212;2022-08-01T03:08:28;19.70;;;2.75;;
55692;SDS011;41590;53.366;5.212;2022-08-01T03:10:55;18.98;;;3.78;;
55692;SDS011;41590;53.366;5.212;2022-08-01T03:13:25;19.58;;;3.30;;
55692;SDS011;41590;53.366;5.212;2022-08-01T03:15:52;17.63;;;3.13;;
55692;SDS011;41590;53.366;5.212;2022-08-01T03:18:20;25.98;;;3.63;;
55692;SDS011;41590;53.366;5.212;2022-08-01T03:20:49;16.63;;;2.58;;
55692;SDS011;41590;53.366;5.212;2022-08-01T03:23:17;17.17;;;2.80;;
55692;SDS011;41590;53.366;5.212;2022-08-01T03:25:46;16.42;;;3.75;;
55692;SDS011;41590;53.366;5.212;2022-08-01T03:28:14;17.17;;;3.00;;
55692;SDS011;41590;53.366;5.212;2022-08-01T03:30:42;14.45;;;2.95;;
55692;SDS011;41590;53.366;5.212;2022-08-01T03:33:11;18.50;;;2.88;;
55692;SDS011;41590;53.366;5.212;2022-08-01T03:35:47;10.65;;;2.30;;
55692;SDS011;41590;53.366;5.212;2022-08-01T03:38:24;16.60;;;3.22;;
55692;SDS011;41590;53.366;5.212;2022-08-01T03:43:26;15.27;;;3.15;;
55692;SDS011;41590;53.366;5.212;2022-08-01T03:46:22;16.08;;;3.35;;
55692;SDS011;41590;53.366;5.212;2022-08-01T03:49:00;16.27;;;2.65;;
55692;SDS011;41590;53.366;5.212;2022-08-01T03:51:33;19.42;;;2.88;;
55692;SDS011;41590;53.366;5.212;2022-08-01T03:54:00;18.05;;;2.40;;
55692;SDS011;41590;53.366;5.212;2022-08-01T03:56:26;13.73;;;3.53;;
55692;SDS011;41590;53.366;5.212;2022-08-01T03:58:57;19.50;;;3.55;;
55692;SDS011;41590;53.366;5.212;2022-08-01T04:01:28;18.30;;;3.70;;
55692;SDS011;41590;53.366;5.212;2022-08-01T04:03:56;19.50;;;3.47;;
55692;SDS011;41590;53.366;5.212;2022-08-01T04:06:24;15.43;;;3.15;;
55692;SDS011;41590;53.366;5.212;2022-08-01T04:08:50;20.13;;;3.20;;
55692;SDS011;41590;53.366;5.212;2022-08-01T04:11:25;16.88;;;3.08;;
55692;SDS011;41590;53.366;5.212;2022-08-01T04:13:52;23.05;;;3.50;;
55692;SDS011;41590;53.366;5.212;2022-08-01T04:16:19;21.33;;;3.80;;
55692;SDS011;41590;53.366;5.212;2022-08-01T04:18:47;19.80;;;3.95;;
55692;SDS011;41590;53.366;5.212;2022-08-01T04:21:17;18.05;;;3.22;;
55692;SDS011;41590;53.366;5.212;2022-08-01T04:23:46;16.40;;;2.78;;
55692;SDS011;41590;53.366;5.212;2022-08-01T04:26:14;22.30;;;3.45;;
55692;SDS011;41590;53.366;5.212;2022-08-01T04:28:41;20.67;;;3.58;;
55692;SDS011;41590;53.366;5.212;2022-08-01T04:31:09;18.98;;;3.15;;
55692;SDS011;41590;53.366;5.212;2022-08-01T04:33:42;20.38;;;3.42;;
55692;SDS011;41590;53.366;5.212;2022-08-01T04:36:19;19.45;;;3.55;;
55692;SDS011;41590;53.366;5.212;2022-08-01T04:38:48;19.83;;;3.22;;
55692;SDS011;41590;53.366;5.212;2022-08-01T04:41:25;17.23;;;3.15;;
55692;SDS011;41590;53.366;5.212;2022-08-01T04:43:56;15.73;;;3.72;;
55692;SDS011;41590;53.366;5.212;2022-08-01T04:46:25;21.52;;;3.55;;
55692;SDS011;41590;53.366;5.212;2022-08-01T04:49:00;18.65;;;3.28;;
55692;SDS011;41590;53.366;5.212;2022-08-01T04:51:28;16.60;;;2.72;;
55692;SDS011;41590;53.366;5.212;2022-08-01T04:53:54;18.45;;;2.97;;
55692;SDS011;41590;53.366;5.212;2022-08-01T04:56:21;18.23;;;3.40;;
55692;SDS011;41590;53.366;5.212;2022-08-01T04:58:47;18.88;;;3.03;;
55692;SDS011;41590;53.366;5.212;2022-08-01T05:01:13;16.77;;;2.63;;
55692;SDS011;41590;53.366;5.212;2022-08-01T05:03:39;16.55;;;2.60;;
55692;SDS011;41590;53.366;5.212;2022-08-01T05:06:05;16.27;;;3.15;;
55692;SDS011;41590;53.366;5.212;2022-08-01T05:08:31;15.50;;;2.75;;
55692;SDS011;41590;53.366;5.212;2022-08-01T05:11:00;20.20;;;3.42;;
55692;SDS011;41590;53.366;5.212;2022-08-01T05:13:36;16.33;;;3.03;;
55692;SDS011;41590;53.366;5.212;2022-08-01T05:16:02;13.80;;;2.53;;
55692;SDS011;41590;53.366;5.212;2022-08-01T05:18:28;21.00;;;2.72;;
55692;SDS011;41590;53.366;5.212;2022-08-01T05:20:54;15.35;;;2.83;;
55692;SDS011;41590;53.366;5.212;2022-08-01T05:23:20;21.83;;;2.97;;
55692;SDS011;41590;53.366;5.212;2022-08-01T05:25:46;14.27;;;2.67;;
55692;SDS011;41590;53.366;5.212;2022-08-01T05:28:11;16.70;;;2.15;;
55692;SDS011;41590;53.366;5.212;2022-08-01T05:30:40;12.63;;;2.03;;
55692;SDS011;41590;53.366;5.212;2022-08-01T05:33:06;15.98;;;2.83;;
55692;SDS011;41590;53.366;5.212;2022-08-01T05:35:32;16.15;;;3.10;;
55692;SDS011;41590;53.366;5.212;2022-08-01T05:37:57;20.70;;;2.60;;
55692;SDS011;41590;53.366;5.212;2022-08-01T05:40:23;15.43;;;2.13;;
55692;SDS011;41590;53.366;5.212;2022-08-01T05:42:49;17.75;;;2.60;;
55692;SDS011;41590;53.366;5.212;2022-08-01T05:45:15;16.60;;;2.33;;
55692;SDS011;41590;53.366;5.212;2022-08-01T05:47:42;13.52;;;2.22;;
55692;SDS011;41590;53.366;5.212;2022-08-01T05:50:10;10.65;;;2.40;;
55692;SDS011;41590;53.366;5.212;2022-08-01T05:52:41;12.73;;;2.35;;
55692;SDS011;41590;53.366;5.212;2022-08-01T05:55:19;17.17;;;2.53;;
55692;SDS011;41590;53.366;5.212;2022-08-01T05:57:45;16.55;;;2.85;;
55692;SDS011;41590;53.366;5.212;2022-08-01T06:00:12;17.10;;;2.95;;
55692;SDS011;41590;53.366;5.212;2022-08-01T06:02:40;14.93;;;2.22;;
55692;SDS011;41590;53.366;5.212;2022-08-01T06:05:13;14.45;;;1.83;;
55692;SDS011;41590;53.366;5.212;2022-08-01T06:07:39;19.58;;;2.70;;
55692;SDS011;41590;53.366;5.212;2022-08-01T06:10:06;11.40;;;2.17;;
55692;SDS011;41590;53.366;5.212;2022-08-01T06:12:34;11.65;;;2.88;;
55692;SDS011;41590;53.366;5.212;2022-08-01T06:20:22;17.60;;;2.40;;
55692;SDS011;41590;53.366;5.212;2022-08-01T06:22:50;16.08;;;2.35;;
55692;SDS011;41590;53.366;5.212;2022-08-01T06:25:21;8.70;;;2.05;;
55692;SDS011;41590;53.366;5.212;2022-08-01T06:27:47;9.32;;;2.10;;
55692;SDS011;41590;53.366;5.212;2022-08-01T06:30:18;14.32;;;2.45;;
55692;SDS011;41590;53.366;5.212;2022-08-01T06:32:45;16.20;;;2.55;;
55692;SDS011;41590;53.366;5.212;2022-08-01T06:35:13;12.93;;;2.42;;
55692;SDS011;41590;53.366;5.212;2022-08-01T06:37:39;12.98;;;1.90;;
55692;SDS011;41590;53.366;5.212;2022-08-01T06:40:06;8.63;;;1.70;;
55692;SDS011;41590;53.366;5.212;2022-08-01T06:42:36;12.82;;;2.25;;
55692;SDS011;41590;53.366;5.212;2022-08-01T06:45:06;17.23;;;2.50;;
55692;SDS011;41590;53.366;5.212;2022-08-01T06:47:44;11.90;;;2.13;;
55692;SDS011;41590;53.366;5.212;2022-08-01T06:50:11;9.68;;;1.92;;
55692;SDS011;41590;53.366;5.212;2022-08-01T06:52:39;12.00;;;1.90;;
55692;SDS011;41590;53.366;5.212;2022-08-01T06:58:20;11.18;;;2.13;;
55692;SDS011;41590;53.366;5.212;2022-08-01T07:00:58;12.02;;;1.80;;
55692;SDS011;41590;53.366;5.212;2022-08-01T07:03:35;9.82;;;2.05;;
55692;SDS011;41590;53.366;5.212;2022-08-01T07:06:14;17.60;;;2.83;;
55692;SDS011;41590;53.366;5.212;2022-08-01T07:08:40;13.20;;;2.17;;
55692;SDS011;41590;53.366;5.212;2022-08-01T07:11:09;14.63;;;2.63;;
55692;SDS011;41590;53.366;5.212;2022-08-01T07:13:34;10.23;;;1.80;;
55692;SDS011;41590;53.366;5.212;2022-08-01T07:16:00;11.95;;;1.75;;
55692;SDS011;41590;53.366;5.212;2022-08-01T07:18:27;11.43;;;1.70;;
55692;SDS011;41590;53.366;5.212;2022-08-01T07:20:56;6.93;;;1.85;;
55692;SDS011;41590;53.366;5.212;2022-08-01T07:26:02;10.98;;;2.30;;
55692;SDS011;41590;53.366;5.212;2022-08-01T07:28:29;10.38;;;1.75;;
55692;SDS011;41590;53.366;5.212;2022-08-01T07:30:58;6.75;;;1.90;;
55692;SDS011;41590;53.366;5.212;2022-08-01T07:36:17;12.73;;;2.10;;
55692;SDS011;41590;53.366;5.212;2022-08-01T07:39:01;13.13;;;1.70;;
55692;SDS011;41590;53.366;5.212;2022-08-01T07:45:07;8.70;;;1.48;;
55692;SDS011;41590;53.366;5.212;2022-08-01T07:50:03;12.18;;;1.88;;
55692;SDS011;41590;53.366;5.212;2022-08-01T07:52:30;11.63;;;2.58;;
55692;SDS011;41590;53.366;5.212;2022-08-01T07:54:56;10.75;;;2.00;;
55692;SDS011;41590;53.366;5.212;2022-08-01T07:57:24;12.68;;;2.05;;
55692;SDS011;41590;53.366;5.212;2022-08-01T07:59:52;11.43;;;1.50;;
55692;SDS011;41590;53.366;5.212;2022-08-01T08:04:47;11.57;;;2.15;;
55692;SDS011;41590;53.366;5.212;2022-08-01T08:10:11;8.98;;;1.63;;
55692;SDS011;41590;53.366;5.212;2022-08-01T08:12:38;8.45;;;1.85;;
55692;SDS011;41590;53.366;5.212;2022-08-01T08:17:35;10.55;;;1.70;;
55692;SDS011;41590;53.366;5.212;2022-08-01T08:20:16;7.45;;;1.55;;
55692;SDS011;41590;53.366;5.212;2022-08-01T08:22:52;7.70;;;1.52;;
55692;SDS011;41590;53.366;5.212;2022-08-01T08:28:11;9.77;;;1.38;;
55692;SDS011;41590;53.366;5.212;2022-08-01T08:33:37;8.52;;;1.38;;
55692;SDS011;41590;53.366;5.212;2022-08-01T08:36:13;15.07;;;1.85;;
55692;SDS011;41590;53.366;5.212;2022-08-01T08:41:41;10.23;;;1.55;;
55692;SDS011;41590;53.366;5.212;2022-08-01T08:44:14;5.35;;;1.40;;
55692;SDS011;41590;53.366;5.212;2022-08-01T08:49:46;5.68;;;1.77;;
55692;SDS011;41590;53.366;5.212;2022-08-01T08:55:01;6.93;;;1.20;;
55692;SDS011;41590;53.366;5.212;2022-08-01T08:57:28;11.57;;;1.48;;
55692;SDS011;41590;53.366;5.212;2022-08-01T09:00:03;6.32;;;1.25;;
55692;SDS011;41590;53.366;5.212;2022-08-01T09:02:32;10.93;;;1.52;;
55692;SDS011;41590;53.366;5.212;2022-08-01T09:05:05;6.00;;;0.82;;
55692;SDS011;41590;53.366;5.212;2022-08-01T09:13:48;11.30;;;1.30;;
55692;SDS011;41590;53.366;5.212;2022-08-01T09:19:18;7.35;;;1.33;;
55692;SDS011;41590;53.366;5.212;2022-08-01T09:27:26;9.75;;;1.75;;
55692;SDS011;41590;53.366;5.212;2022-08-01T09:29:55;6.82;;;1.05;;
55692;SDS011;41590;53.366;5.212;2022-08-01T09:33:03;3.95;;;0.88;;
55692;SDS011;41590;53.366;5.212;2022-08-01T09:38:34;5.85;;;1.35;;
55692;SDS011;41590;53.366;5.212;2022-08-01T09:41:04;9.88;;;1.85;;
55692;SDS011;41590;53.366;5.212;2022-08-01T09:43:38;5.30;;;1.30;;
55692;SDS011;41590;53.366;5.212;2022-08-01T09:46:16;5.25;;;1.08;;
55692;SDS011;41590;53.366;5.212;2022-08-01T09:48:59;6.28;;;1.30;;
55692;SDS011;41590;53.366;5.212;2022-08-01T09:51:36;5.90;;;1.20;;
55692;SDS011;41590;53.366;5.212;2022-08-01T09:54:04;4.03;;;1.10;;
55692;SDS011;41590;53.366;5.212;2022-08-01T09:56:41;7.47;;;1.23;;
55692;SDS011;41590;53.366;5.212;2022-08-01T09:59:08;6.95;;;1.15;;
55692;SDS011;41590;53.366;5.212;2022-08-01T10:01:46;6.53;;;1.33;;
55692;SDS011;41590;53.366;5.212;2022-08-01T10:04:20;5.78;;;1.20;;
55692;SDS011;41590;53.366;5.212;2022-08-01T10:06:48;3.90;;;0.95;;
55692;SDS011;41590;53.366;5.212;2022-08-01T10:09:30;3.85;;;1.05;;
55692;SDS011;41590;53.366;5.212;2022-08-01T10:12:02;12.27;;;1.63;;
55692;SDS011;41590;53.366;5.212;2022-08-01T10:14:31;6.68;;;1.02;;
55692;SDS011;41590;53.366;5.212;2022-08-01T10:17:03;4.72;;;1.42;;
55692;SDS011;41590;53.366;5.212;2022-08-01T10:19:34;5.88;;;1.10;;
55692;SDS011;41590;53.366;5.212;2022-08-01T10:27:37;8.32;;;1.15;;
55692;SDS011;41590;53.366;5.212;2022-08-01T10:30:04;5.38;;;1.13;;
55692;SDS011;41590;53.366;5.212;2022-08-01T10:32:36;6.05;;;1.17;;
55692;SDS011;41590;53.366;5.212;2022-08-01T10:35:03;4.60;;;0.85;;
55692;SDS011;41590;53.366;5.212;2022-08-01T10:37:37;8.23;;;1.08;;
55692;SDS011;41590;53.366;5.212;2022-08-01T10:40:22;6.30;;;1.20;;
55692;SDS011;41590;53.366;5.212;2022-08-01T10:51:43;4.65;;;0.82;;
55692;SDS011;41590;53.366;5.212;2022-08-01T10:54:12;6.45;;;0.90;;
55692;SDS011;41590;53.366;5.212;2022-08-01T11:05:02;4.25;;;1.05;;
55692;SDS011;41590;53.366;5.212;2022-08-01T11:13:12;5.53;;;1.55;;
55692;SDS011;41590;53.366;5.212;2022-08-01T11:15:40;6.72;;;1.20;;
55692;SDS011;41590;53.366;5.212;2022-08-01T11:21:02;6.78;;;1.20;;
55692;SDS011;41590;53.366;5.212;2022-08-01T11:23:50;6.80;;;0.98;;
55692;SDS011;41590;53.366;5.212;2022-08-01T11:29:29;3.28;;;1.00;;
55692;SDS011;41590;53.366;5.212;2022-08-01T11:32:07;7.68;;;1.30;;
55692;SDS011;41590;53.366;5.212;2022-08-01T11:37:34;6.25;;;1.15;;
55692;SDS011;41590;53.366;5.212;2022-08-01T11:43:17;6.03;;;1.20;;
55692;SDS011;41590;53.366;5.212;2022-08-01T11:45:59;6.07;;;0.95;;
55692;SDS011;41590;53.366;5.212;2022-08-01T11:48:37;4.80;;;1.05;;
55692;SDS011;41590;53.366;5.212;2022-08-01T11:54:44;7.25;;;0.95;;
55692;SDS011;41590;53.366;5.212;2022-08-01T11:57:24;4.82;;;1.10;;
55692;SDS011;41590;53.366;5.212;2022-08-01T12:00:01;5.82;;;1.20;;
55692;SDS011;41590;53.366;5.212;2022-08-01T12:02:56;9.48;;;1.23;;
55692;SDS011;41590;53.366;5.212;2022-08-01T12:08:00;5.93;;;1.00;;
55692;SDS011;41590;53.366;5.212;2022-08-01T12:10:30;4.38;;;0.77;;
55692;SDS011;41590;53.366;5.212;2022-08-01T12:13:10;8.13;;;1.10;;
55692;SDS011;41590;53.366;5.212;2022-08-01T12:21:08;4.32;;;1.02;;
55692;SDS011;41590;53.366;5.212;2022-08-01T12:26:59;3.95;;;1.65;;
55692;SDS011;41590;53.366;5.212;2022-08-01T12:29:38;6.32;;;1.55;;
55692;SDS011;41590;53.366;5.212;2022-08-01T12:32:29;8.68;;;1.63;;
55692;SDS011;41590;53.366;5.212;2022-08-01T12:35:06;4.68;;;0.80;;
55692;SDS011;41590;53.366;5.212;2022-08-01T12:43:21;8.00;;;1.42;;
55692;SDS011;41590;53.366;5.212;2022-08-01T12:48:35;7.75;;;1.40;;
55692;SDS011;41590;53.366;5.212;2022-08-01T12:51:07;6.93;;;1.35;;
55692;SDS011;41590;53.366;5.212;2022-08-01T12:53:41;5.93;;;1.35;;
55692;SDS011;41590;53.366;5.212;2022-08-01T12:56:22;9.32;;;1.30;;
55692;SDS011;41590;53.366;5.212;2022-08-01T12:59:00;12.20;;;1.20;;
55692;SDS011;41590;53.366;5.212;2022-08-01T13:01:33;5.72;;;1.35;;
55692;SDS011;41590;53.366;5.212;2022-08-01T13:04:02;6.13;;;1.15;;
55692;SDS011;41590;53.366;5.212;2022-08-01T13:06:31;8.73;;;1.45;;
55692;SDS011;41590;53.366;5.212;2022-08-01T13:09:08;5.68;;;1.58;;
55692;SDS011;41590;53.366;5.212;2022-08-01T13:11:40;7.35;;;1.40;;
55692;SDS011;41590;53.366;5.212;2022-08-01T13:14:10;11.15;;;1.40;;
55692;SDS011;41590;53.366;5.212;2022-08-01T13:16:50;8.07;;;0.95;;
55692;SDS011;41590;53.366;5.212;2022-08-01T13:19:16;4.90;;;1.10;;
55692;SDS011;41590;53.366;5.212;2022-08-01T13:21:56;6.78;;;1.30;;
55692;SDS011;41590;53.366;5.212;2022-08-01T13:24:24;9.07;;;1.40;;
55692;SDS011;41590;53.366;5.212;2022-08-01T13:26:55;5.72;;;1.30;;
55692;SDS011;41590;53.366;5.212;2022-08-01T13:29:29;5.88;;;1.13;;
55692;SDS011;41590;53.366;5.212;2022-08-01T13:32:12;8.82;;;1.83;;
55692;SDS011;41590;53.366;5.212;2022-08-01T13:37:45;9.65;;;1.50;;
55692;SDS011;41590;53.366;5.212;2022-08-01T13:42:57;4.75;;;1.23;;
55692;SDS011;41590;53.366;5.212;2022-08-01T13:53:39;6.00;;;1.50;;
55692;SDS011;41590;53.366;5.212;2022-08-01T13:56:12;7.13;;;1.42;;
55692;SDS011;41590;53.366;5.212;2022-08-01T13:58:40;5.85;;;1.45;;
55692;SDS011;41590;53.366;5.212;2022-08-01T14:01:08;8.18;;;1.98;;
55692;SDS011;41590;53.366;5.212;2022-08-01T14:03:35;9.20;;;1.10;;
55692;SDS011;41590;53.366;5.212;2022-08-01T14:06:06;8.07;;;1.50;;
55692;SDS011;41590;53.366;5.212;2022-08-01T14:08:35;9.93;;;1.52;;
55692;SDS011;41590;53.366;5.212;2022-08-01T14:11:02;11.15;;;1.52;;
55692;SDS011;41590;53.366;5.212;2022-08-01T14:13:30;8.68;;;1.20;;
55692;SDS011;41590;53.366;5.212;2022-08-01T14:18:55;8.32;;;1.80;;
55692;SDS011;41590;53.366;5.212;2022-08-01T14:24:03;6.25;;;1.45;;
55692;SDS011;41590;53.366;5.212;2022-08-01T14:26:40;10.85;;;1.35;;
55692;SDS011;41590;53.366;5.212;2022-08-01T14:29:06;8.63;;;1.23;;
55692;SDS011;41590;53.366;5.212;2022-08-01T14:31:36;5.72;;;1.40;;
55692;SDS011;41590;53.366;5.212;2022-08-01T14:34:04;5.50;;;1.20;;
55692;SDS011;41590;53.366;5.212;2022-08-01T14:42:02;7.47;;;1.27;;
55692;SDS011;41590;53.366;5.212;2022-08-01T14:44:37;6.07;;;1.20;;
55692;SDS011;41590;53.366;5.212;2022-08-01T14:47:06;5.45;;;1.00;;
55692;SDS011;41590;53.366;5.212;2022-08-01T14:49:35;5.05;;;1.10;;
55692;SDS011;41590;53.366;5.212;2022-08-01T14:52:02;7.35;;;1.38;;
55692;SDS011;41590;53.366;5.212;2022-08-01T14:57:01;7.40;;;1.20;;
55692;SDS011;41590;53.366;5.212;2022-08-01T14:59:27;7.65;;;1.85;;
55692;SDS011;41590;53.366;5.212;2022-08-01T15:10:12;6.03;;;1.08;;
55692;SDS011;41590;53.366;5.212;2022-08-01T15:12:38;6.88;;;1.45;;
55692;SDS011;41590;53.366;5.212;2022-08-01T15:15:15;8.27;;;1.60;;
55692;SDS011;41590;53.366;5.212;2022-08-01T15:17:40;6.57;;;1.17;;
55692;SDS011;41590;53.366;5.212;2022-08-01T15:20:06;6.63;;;1.35;;
55692;SDS011;41590;53.366;5.212;2022-08-01T15:27:32;6.40;;;1.40;;
55692;SDS011;41590;53.366;5.212;2022-08-01T15:29:58;8.88;;;1.38;;
55692;SDS011;41590;53.366;5.212;2022-08-01T15:32:24;6.55;;;1.33;;
55692;SDS011;41590;53.366;5.212;2022-08-01T15:34:51;8.40;;;1.10;;
55692;SDS011;41590;53.366;5.212;2022-08-01T15:37:17;7.18;;;1.45;;
55692;SDS011;41590;53.366;5.212;2022-08-01T15:42:15;7.35;;;1.25;;
55692;SDS011;41590;53.366;5.212;2022-08-01T15:44:44;5.85;;;1.20;;
55692;SDS011;41590;53.366;5.212;2022-08-01T15:47:13;6.10;;;0.98;;
55692;SDS011;41590;53.366;5.212;2022-08-01T15:49:39;7.85;;;1.33;;
55692;SDS011;41590;53.366;5.212;2022-08-01T15:52:05;5.82;;;1.23;;
55692;SDS011;41590;53.366;5.212;2022-08-01T15:54:32;7.45;;;1.38;;
55692;SDS011;41590;53.366;5.212;2022-08-01T15:57:04;5.90;;;1.13;;
55692;SDS011;41590;53.366;5.212;2022-08-01T15:59:36;5.60;;;0.95;;
55692;SDS011;41590;53.366;5.212;2022-08-01T16:05:00;5.32;;;0.98;;
55692;SDS011;41590;53.366;5.212;2022-08-01T16:07:44;7.32;;;1.38;;
55692;SDS011;41590;53.366;5.212;2022-08-01T16:10:16;5.88;;;1.27;;
55692;SDS011;41590;53.366;5.212;2022-08-01T16:12:42;6.25;;;0.95;;
55692;SDS011;41590;53.366;5.212;2022-08-01T16:15:13;9.52;;;1.00;;
55692;SDS011;41590;53.366;5.212;2022-08-01T16:17:42;6.30;;;1.38;;
55692;SDS011;41590;53.366;5.212;2022-08-01T16:20:14;7.22;;;1.67;;
55692;SDS011;41590;53.366;5.212;2022-08-01T16:25:31;8.43;;;1.35;;
55692;SDS011;41590;53.366;5.212;2022-08-01T16:31:46;6.82;;;1.63;;
55692;SDS011;41590;53.366;5.212;2022-08-01T16:37:18;7.30;;;1.38;;
55692;SDS011;41590;53.366;5.212;2022-08-01T16:39:46;5.85;;;1.00;;
55692;SDS011;41590;53.366;5.212;2022-08-01T16:44:43;6.20;;;1.20;;
55692;SDS011;41590;53.366;5.212;2022-08-01T16:47:09;8.10;;;1.13;;
55692;SDS011;41590;53.366;5.212;2022-08-01T16:49:36;7.13;;;1.20;;
55692;SDS011;41590;53.366;5.212;2022-08-01T16:52:07;6.00;;;1.25;;
55692;SDS011;41590;53.366;5.212;2022-08-01T16:54:34;8.18;;;1.55;;
55692;SDS011;41590;53.366;5.212;2022-08-01T16:56:59;5.30;;;1.17;;
55692;SDS011;41590;53.366;5.212;2022-08-01T16:59:26;6.43;;;1.30;;
55692;SDS011;41590;53.366;5.212;2022-08-01T17:01:52;4.93;;;1.27;;
55692;SDS011;41590;53.366;5.212;2022-08-01T17:04:18;10.57;;;1.08;;
55692;SDS011;41590;53.366;5.212;2022-08-01T17:06:44;5.97;;;1.30;;
55692;SDS011;41590;53.366;5.212;2022-08-01T17:09:14;5.70;;;1.15;;
55692;SDS011;41590;53.366;5.212;2022-08-01T17:11:40;7.05;;;1.67;;
55692;SDS011;41590;53.366;5.212;2022-08-01T17:14:06;4.82;;;1.30;;
55692;SDS011;41590;53.366;5.212;2022-08-01T17:16:32;9.15;;;1.60;;
55692;SDS011;41590;53.366;5.212;2022-08-01T17:19:01;5.88;;;2.10;;
55692;SDS011;41590;53.366;5.212;2022-08-01T17:21:28;5.90;;;1.60;;
55692;SDS011;41590;53.366;5.212;2022-08-01T17:23:56;6.63;;;1.13;;
55692;SDS011;41590;53.366;5.212;2022-08-01T17:26:26;7.22;;;1.60;;
55692;SDS011;41590;53.366;5.212;2022-08-01T17:28:58;8.93;;;2.35;;
55692;SDS011;41590;53.366;5.212;2022-08-01T17:31:23;6.90;;;1.60;;
55692;SDS011;41590;53.366;5.212;2022-08-01T17:33:49;4.97;;;1.10;;
55692;SDS011;41590;53.366;5.212;2022-08-01T17:36:16;8.68;;;1.67;;
55692;SDS011;41590;53.366;5.212;2022-08-01T17:38:45;6.40;;;1.30;;
55692;SDS011;41590;53.366;5.212;2022-08-01T17:41:15;7.82;;;1.55;;
55692;SDS011;41590;53.366;5.212;2022-08-01T17:43:43;4.80;;;1.10;;
55692;SDS011;41590;53.366;5.212;2022-08-01T17:46:17;6.07;;;1.30;;
55692;SDS011;41590;53.366;5.212;2022-08-01T17:48:43;8.98;;;1.25;;
55692;SDS011;41590;53.366;5.212;2022-08-01T17:51:10;7.05;;;1.60;;
55692;SDS011;41590;53.366;5.212;2022-08-01T17:53:37;8.73;;;1.70;;
55692;SDS011;41590;53.366;5.212;2022-08-01T17:56:04;8.68;;;1.40;;
55692;SDS011;41590;53.366;5.212;2022-08-01T17:58:37;6.38;;;1.52;;
55692;SDS011;41590;53.366;5.212;2022-08-01T18:04:43;5.35;;;1.10;;
55692;SDS011;41590;53.366;5.212;2022-08-01T18:07:09;5.80;;;1.20;;
55692;SDS011;41590;53.366;5.212;2022-08-01T18:09:36;6.78;;;1.48;;
55692;SDS011;41590;53.366;5.212;2022-08-01T18:12:04;6.78;;;1.40;;
55692;SDS011;41590;53.366;5.212;2022-08-01T18:14:32;6.97;;;1.67;;
55692;SDS011;41590;53.366;5.212;2022-08-01T18:19:44;6.60;;;1.85;;
55692;SDS011;41590;53.366;5.212;2022-08-01T18:22:10;11.80;;;1.70;;
55692;SDS011;41590;53.366;5.212;2022-08-01T18:24:37;7.63;;;1.33;;